createdAt,value
2023-05-13T00:02:03.595Z,17.0
2023-05-13T00:07:09.806Z,17.0
2023-05-13T00:12:16.031Z,17.0
2023-05-13T00:17:22.230Z,17.0
2023-05-13T00:22:28.441Z,17.0
2023-05-13T00:27:34.648Z,16.9
2023-05-13T00:32:40.876Z,16.9
2023-05-13T00:37:47.070Z,16.9
2023-05-13T00:42:53.265Z,16.8
2023-05-13T00:47:59.501Z,16.8
2023-05-13T00:53:05.680Z,16.8
2023-05-13T00:58:11.903Z,16.8
2023-05-13T01:03:18.186Z,16.7
2023-05-13T01:08:24.300Z,16.7
2023-05-13T01:13:30.508Z,16.7
2023-05-13T01:18:36.786Z,16.6
2023-05-13T01:23:42.921Z,16.5
2023-05-13T01:28:49.134Z,16.5
2023-05-13T01:33:55.341Z,16.4
2023-05-13T01:39:01.572Z,16.3
2023-05-13T01:44:07.750Z,16.1
2023-05-13T01:49:13.955Z,16.0
2023-05-13T01:54:20.166Z,15.9
2023-05-13T01:59:26.392Z,15.8
2023-05-13T02:04:32.589Z,15.7
2023-05-13T02:09:38.801Z,15.5
2023-05-13T02:14:45.011Z,15.4
2023-05-13T02:19:51.222Z,15.3
2023-05-13T02:24:57.444Z,15.2
2023-05-13T02:30:03.686Z,15.1
2023-05-13T02:35:09.870Z,15.0
2023-05-13T02:40:16.080Z,14.9
2023-05-13T02:45:22.305Z,14.8
2023-05-13T02:50:28.518Z,14.7
2023-05-13T02:55:34.754Z,14.6
2023-05-13T03:00:40.952Z,14.5
2023-05-13T03:05:47.165Z,14.4
2023-05-13T03:10:53.372Z,14.2
2023-05-13T03:15:59.625Z,14.2
2023-05-13T03:21:05.798Z,14.1
2023-05-13T03:26:12.019Z,14.0
2023-05-13T03:31:18.278Z,14.0
2023-05-13T03:36:24.438Z,13.9
2023-05-13T03:41:30.656Z,13.9
2023-05-13T03:46:36.916Z,13.8
2023-05-13T03:51:43.065Z,13.7
2023-05-13T03:56:49.273Z,13.7
2023-05-13T04:01:55.488Z,13.6
2023-05-13T04:07:01.723Z,13.5
2023-05-13T04:12:07.906Z,13.5
2023-05-13T04:17:14.169Z,13.5
2023-05-13T04:22:20.323Z,13.4
2023-05-13T04:27:26.554Z,13.4
2023-05-13T04:32:32.779Z,13.4
2023-05-13T04:37:38.974Z,13.4
2023-05-13T04:42:44.164Z,13.4
2023-05-13T04:47:50.454Z,13.4
2023-05-13T04:52:56.688Z,13.3
2023-05-13T04:58:02.794Z,13.3
2023-05-13T05:03:09.149Z,13.3
2023-05-13T05:08:15.329Z,13.3
2023-05-13T05:13:21.414Z,13.4
2023-05-13T05:18:27.768Z,13.4
2023-05-13T05:23:33.835Z,13.4
2023-05-13T05:28:40.437Z,13.5
2023-05-13T05:33:46.262Z,13.6
2023-05-13T05:38:52.475Z,13.7
2023-05-13T05:43:58.685Z,13.7
2023-05-13T05:49:04.898Z,13.8
2023-05-13T05:54:11.116Z,13.9
2023-05-13T05:59:17.329Z,14.0
2023-05-13T06:04:23.620Z,14.1
2023-05-13T06:09:29.744Z,14.2
2023-05-13T06:14:35.964Z,14.4
2023-05-13T06:19:42.179Z,14.6
2023-05-13T06:24:48.419Z,14.8
2023-05-13T06:29:54.601Z,15.0
2023-05-13T06:35:00.828Z,15.2
2023-05-13T06:40:07.029Z,15.5
2023-05-13T06:45:13.227Z,15.7
2023-05-13T06:50:19.624Z,16.1
2023-05-13T06:55:25.637Z,16.4
2023-05-13T07:00:31.867Z,16.7
2023-05-13T07:05:38.063Z,17.1
2023-05-13T07:10:44.259Z,17.3
2023-05-13T07:15:50.476Z,17.6
2023-05-13T07:20:56.671Z,17.9
2023-05-13T07:26:02.900Z,18.2
2023-05-13T07:31:09.133Z,18.5
2023-05-13T07:36:15.344Z,18.8
2023-05-13T07:41:21.543Z,19.0
2023-05-13T07:46:27.738Z,19.2
2023-05-13T07:51:33.929Z,19.4
2023-05-13T07:56:40.148Z,19.6
2023-05-13T08:01:46.467Z,19.9
2023-05-13T08:06:52.565Z,20.1
2023-05-13T08:11:58.780Z,20.2
2023-05-13T08:17:04.977Z,20.4
2023-05-13T08:22:11.184Z,20.6
2023-05-13T08:27:17.391Z,20.9
2023-05-13T08:32:23.623Z,21.0
2023-05-13T08:37:29.839Z,21.2
2023-05-13T08:42:36.011Z,21.3
2023-05-13T08:47:42.256Z,21.5
2023-05-13T08:52:48.440Z,21.6
2023-05-13T09:03:00.893Z,22.0
2023-05-13T09:08:07.071Z,22.1
2023-05-13T09:13:13.298Z,22.2
2023-05-13T09:18:19.732Z,22.4
2023-05-13T09:23:25.695Z,22.6
2023-05-13T09:28:31.896Z,22.7
2023-05-13T09:33:38.118Z,22.9
2023-05-13T09:38:44.322Z,23.2
2023-05-13T09:43:50.516Z,23.3
2023-05-13T09:48:57.127Z,23.5
2023-05-13T09:54:02.943Z,23.6
2023-05-13T09:59:09.183Z,23.7
2023-05-13T10:04:15.397Z,23.8
2023-05-13T10:09:21.575Z,23.9
2023-05-13T10:14:26.795Z,24.0
2023-05-13T10:19:33.004Z,24.1
2023-05-13T10:24:39.222Z,24.2
2023-05-13T10:29:45.439Z,24.3
2023-05-13T10:34:51.647Z,24.4
2023-05-13T10:39:57.839Z,24.5
2023-05-13T10:45:04.050Z,24.6
2023-05-13T10:50:10.258Z,24.7
2023-05-13T10:55:16.463Z,24.7
2023-05-13T11:00:22.864Z,24.8
2023-05-13T11:05:28.891Z,24.8
2023-05-13T11:10:35.093Z,24.9
2023-05-13T11:15:41.307Z,24.9
2023-05-13T11:25:53.720Z,25.2
2023-05-13T11:30:59.971Z,25.2
2023-05-13T11:36:06.153Z,25.3
2023-05-13T11:41:12.361Z,25.4
2023-05-13T11:46:18.601Z,25.5
2023-05-13T11:51:24.788Z,25.5
2023-05-13T11:56:31.005Z,25.5
2023-05-13T12:01:37.208Z,25.6
2023-05-13T12:06:43.432Z,25.7
2023-05-13T12:11:49.634Z,25.8
2023-05-13T12:16:55.848Z,25.8
2023-05-13T12:22:02.986Z,25.9
2023-05-13T12:27:11.301Z,26.0
2023-05-13T12:32:14.495Z,26.1
2023-05-13T12:37:20.704Z,26.1
2023-05-13T12:42:26.933Z,26.2
2023-05-13T12:47:33.156Z,26.2
2023-05-13T12:52:39.362Z,26.3
2023-05-13T12:57:45.581Z,26.4
2023-05-13T13:02:52.094Z,0.0
2023-05-13T13:07:58.247Z,26.4
2023-05-13T13:13:04.449Z,26.5
2023-05-13T13:18:10.755Z,26.5
2023-05-13T13:23:16.889Z,26.5
2023-05-13T13:28:23.099Z,26.6
2023-05-13T13:33:29.323Z,26.7
2023-05-13T13:38:35.534Z,26.8
2023-05-13T13:43:41.753Z,26.8
2023-05-13T13:48:47.962Z,26.9
2023-05-13T13:53:54.422Z,0.0
2023-05-13T13:59:00.628Z,27.0
2023-05-13T14:04:06.915Z,27.0
2023-05-13T14:09:13.079Z,27.2
2023-05-13T14:14:19.285Z,27.3
2023-05-13T14:19:25.803Z,27.4
2023-05-13T14:24:31.726Z,27.4
2023-05-13T14:29:37.978Z,27.5
2023-05-13T14:34:44.180Z,27.4
2023-05-13T14:39:50.465Z,27.5
2023-05-13T14:44:56.630Z,27.6
2023-05-13T14:50:02.911Z,27.6
2023-05-13T14:55:09.070Z,27.6
2023-05-13T15:00:15.289Z,27.6
2023-05-13T15:05:21.514Z,27.5
2023-05-13T15:10:27.722Z,27.6
2023-05-13T15:15:33.948Z,27.7
2023-05-13T15:20:40.164Z,27.7
2023-05-13T15:25:46.388Z,27.8
2023-05-13T15:30:52.735Z,27.8
2023-05-13T15:35:58.824Z,27.9
2023-05-13T15:41:05.055Z,27.8
2023-05-13T15:46:10.349Z,27.8
2023-05-13T15:51:16.513Z,27.8
2023-05-13T15:56:22.719Z,27.8
2023-05-13T16:01:28.973Z,27.9
2023-05-13T16:06:35.132Z,27.9
2023-05-13T16:11:41.355Z,27.9
2023-05-13T16:16:46.738Z,27.8
2023-05-13T16:21:52.815Z,27.7
2023-05-13T16:26:59.244Z,27.8
2023-05-13T16:37:11.463Z,27.7
2023-05-13T16:42:17.686Z,27.6
2023-05-13T16:47:24.007Z,27.5
2023-05-13T16:52:30.130Z,27.4
2023-05-13T16:57:36.365Z,27.4
2023-05-13T17:02:42.672Z,27.4
2023-05-13T17:07:48.787Z,27.4
2023-05-13T17:12:55.636Z,27.3
2023-05-13T17:18:01.354Z,27.2
2023-05-13T17:23:07.442Z,27.2
2023-05-13T17:28:13.665Z,27.1
2023-05-13T17:33:19.886Z,27.1
2023-05-13T17:38:26.090Z,27.0
2023-05-13T17:43:32.536Z,0.0
2023-05-13T17:48:38.809Z,26.7
2023-05-13T17:53:44.972Z,26.6
2023-05-13T17:58:51.184Z,26.5
2023-05-13T18:03:57.405Z,26.3
2023-05-13T18:09:03.642Z,26.2
2023-05-13T18:14:09.843Z,26.0
2023-05-13T18:19:16.109Z,25.8
2023-05-13T18:24:22.259Z,25.5
2023-05-13T18:29:28.488Z,25.3
2023-05-13T18:34:34.688Z,25.0
2023-05-13T18:39:40.917Z,24.8
2023-05-13T18:44:47.112Z,24.6
2023-05-13T18:49:53.319Z,24.5
2023-05-13T18:54:59.668Z,24.3
2023-05-13T19:00:05.772Z,24.1
2023-05-13T19:05:11.953Z,23.9
2023-05-13T19:10:18.152Z,23.7
2023-05-13T19:15:24.391Z,23.5
2023-05-13T19:20:30.579Z,23.3
2023-05-13T19:25:36.781Z,23.1
2023-05-13T19:30:43.014Z,22.8
2023-05-13T19:35:49.203Z,22.6
2023-05-13T19:40:55.414Z,22.4
2023-05-13T19:46:01.650Z,22.2
2023-05-13T19:51:07.875Z,22.1
2023-05-13T19:56:14.040Z,21.9
2023-05-13T20:01:20.257Z,21.7
2023-05-13T20:06:26.449Z,21.5
2023-05-13T20:11:32.655Z,21.4
2023-05-13T20:16:38.963Z,21.2
2023-05-13T20:21:45.082Z,21.0
2023-05-13T20:26:51.326Z,20.9
2023-05-13T20:31:57.532Z,20.7
2023-05-13T20:37:03.714Z,20.6
2023-05-13T20:42:09.910Z,20.5
2023-05-13T20:47:16.124Z,20.4
2023-05-13T20:52:22.358Z,20.4
2023-05-13T20:57:28.548Z,20.4
2023-05-13T21:02:34.814Z,20.3
2023-05-13T21:07:40.970Z,20.4
2023-05-13T21:12:47.174Z,20.3
2023-05-13T21:17:53.469Z,20.3
2023-05-13T21:22:59.595Z,20.4
2023-05-13T21:28:05.790Z,20.3
2023-05-13T21:33:12.038Z,20.3
2023-05-13T21:38:18.205Z,20.3
2023-05-13T21:43:24.414Z,20.3
2023-05-13T21:48:29.685Z,20.2
2023-05-13T21:53:35.846Z,20.2
2023-05-13T21:58:42.060Z,20.1
2023-05-13T22:03:48.264Z,20.0
2023-05-13T22:08:54.477Z,19.9
2023-05-13T22:14:00.685Z,19.9
2023-05-13T22:19:06.955Z,19.8
2023-05-13T22:24:13.099Z,19.7
2023-05-13T22:29:19.306Z,19.6
2023-05-13T22:34:25.523Z,19.5
2023-05-13T22:39:31.726Z,19.5
2023-05-13T22:44:37.973Z,19.4
2023-05-13T22:49:44.143Z,19.3
2023-05-13T22:54:50.352Z,19.2
2023-05-13T22:59:56.560Z,19.1
2023-05-13T23:05:02.771Z,19.0
2023-05-13T23:10:08.978Z,18.9
2023-05-13T23:15:15.198Z,18.8
2023-05-13T23:20:21.544Z,18.7
2023-05-13T23:25:27.619Z,18.7
2023-05-13T23:30:33.805Z,18.6
2023-05-13T23:35:40.028Z,18.5
2023-05-13T23:40:46.219Z,18.5
2023-05-13T23:45:52.465Z,18.4
2023-05-13T23:50:58.641Z,18.3
2023-05-13T23:56:04.872Z,18.3
